createdAt,value
2018-10-18T00:00:53.571Z,937.50
2018-10-18T00:01:53.582Z,937.49
2018-10-18T00:02:53.534Z,937.49
2018-10-18T00:03:53.538Z,937.48
2018-10-18T00:04:53.508Z,937.43
2018-10-18T00:05:53.515Z,937.44
2018-10-18T00:06:53.487Z,937.46
2018-10-18T00:07:53.549Z,937.49
2018-10-18T00:08:53.472Z,937.49
2018-10-18T00:09:53.459Z,937.49
2018-10-18T00:10:53.459Z,937.51
2018-10-18T00:11:53.472Z,937.52
2018-10-18T00:12:53.422Z,937.49
2018-10-18T00:13:53.419Z,937.52
2018-10-18T00:14:53.411Z,937.48
2018-10-18T00:15:53.414Z,937.50
2018-10-18T00:16:53.379Z,937.47
2018-10-18T00:17:53.389Z,937.49
2018-10-18T00:18:53.359Z,937.50
2018-10-18T00:19:53.355Z,937.52
2018-10-18T00:20:53.348Z,937.50
2018-10-18T00:21:53.324Z,937.51
2018-10-18T00:22:53.312Z,937.51
2018-10-18T00:23:53.320Z,937.58
2018-10-18T00:24:53.289Z,937.49
2018-10-18T00:25:53.319Z,937.50
2018-10-18T00:26:53.268Z,937.49
2018-10-18T00:27:53.256Z,937.47
2018-10-18T00:28:53.247Z,937.51
2018-10-18T00:29:53.276Z,937.50
2018-10-18T00:30:53.256Z,937.51
2018-10-18T00:31:53.236Z,937.50
2018-10-18T00:32:53.202Z,937.52
2018-10-18T00:33:53.192Z,937.51
2018-10-18T00:34:53.178Z,937.48
2018-10-18T00:35:53.181Z,937.48
2018-10-18T00:36:53.171Z,937.46
2018-10-18T00:37:53.165Z,937.47
2018-10-18T00:38:53.133Z,937.49
2018-10-18T00:39:53.121Z,937.47
2018-10-18T00:40:53.112Z,937.50
2018-10-18T00:41:53.163Z,937.48
2018-10-18T00:42:53.100Z,937.48
2018-10-18T00:43:53.114Z,937.49
2018-10-18T00:44:53.073Z,937.48
2018-10-18T00:45:53.055Z,937.48
2018-10-18T00:46:53.059Z,937.45
2018-10-18T00:47:53.065Z,937.44
2018-10-18T00:48:53.022Z,937.42
2018-10-18T00:49:53.070Z,937.43
2018-10-18T00:50:53.010Z,937.41
2018-10-18T00:51:53.031Z,937.39
2018-10-18T00:52:52.978Z,937.41
2018-10-18T00:53:53.000Z,937.37
2018-10-18T00:54:52.957Z,937.37
2018-10-18T00:55:52.997Z,937.37
2018-10-18T00:56:52.949Z,937.38
2018-10-18T00:57:52.935Z,937.35
2018-10-18T00:58:52.917Z,937.37
2018-10-18T00:59:52.922Z,937.36
2018-10-18T01:00:52.890Z,937.39
2018-10-18T01:01:52.927Z,937.34
2018-10-18T01:02:52.870Z,937.40
2018-10-18T01:03:52.857Z,937.37
2018-10-18T01:04:52.853Z,937.38
2018-10-18T01:05:52.837Z,937.34
2018-10-18T01:06:52.842Z,937.30
2018-10-18T01:07:52.820Z,937.34
2018-10-18T01:08:52.803Z,937.33
2018-10-18T01:09:52.793Z,937.35
2018-10-18T01:10:52.786Z,937.31
2018-10-18T01:11:52.827Z,937.31
2018-10-18T01:12:52.780Z,937.33
2018-10-18T01:13:52.775Z,937.31
2018-10-18T01:14:52.736Z,937.29
2018-10-18T01:15:52.732Z,937.31
2018-10-18T01:16:52.732Z,937.30
2018-10-18T01:17:52.755Z,937.29
2018-10-18T01:18:52.693Z,937.31
2018-10-18T01:19:52.737Z,937.35
2018-10-18T01:20:52.670Z,937.30
2018-10-18T01:21:52.676Z,937.33
2018-10-18T01:22:52.647Z,937.34
2018-10-18T01:23:52.645Z,937.32
2018-10-18T01:24:52.624Z,937.34
2018-10-18T01:25:52.654Z,937.31
2018-10-18T01:26:52.620Z,937.34
2018-10-18T01:27:52.594Z,937.30
2018-10-18T01:28:52.586Z,937.32
2018-10-18T01:29:52.619Z,937.33
2018-10-18T01:30:52.559Z,937.35
2018-10-18T01:31:52.607Z,937.33
2018-10-18T01:32:52.548Z,937.32
2018-10-18T01:33:52.527Z,937.29
2018-10-18T01:34:52.516Z,937.29
2018-10-18T01:35:52.560Z,937.27
2018-10-18T01:36:52.510Z,937.31
2018-10-18T01:37:52.490Z,937.26
2018-10-18T01:38:52.472Z,937.25
2018-10-18T01:39:52.462Z,937.25
2018-10-18T01:40:52.451Z,937.24
2018-10-18T01:41:52.466Z,937.27
2018-10-18T01:42:52.428Z,937.23
2018-10-18T01:43:52.444Z,937.19
2018-10-18T01:44:52.406Z,937.17
2018-10-18T01:45:52.394Z,937.15
2018-10-18T01:46:52.383Z,937.23
2018-10-18T01:47:52.399Z,937.18
2018-10-18T01:48:52.373Z,937.20
2018-10-18T01:49:52.428Z,937.21
2018-10-18T01:50:52.338Z,937.20
2018-10-18T01:51:52.350Z,937.18
2018-10-18T01:52:52.333Z,937.21
2018-10-18T01:53:52.311Z,937.22
2018-10-18T01:54:52.308Z,937.22
2018-10-18T01:55:52.329Z,937.21
2018-10-18T01:56:52.273Z,937.21
2018-10-18T01:57:52.278Z,937.21
2018-10-18T01:58:52.256Z,937.20
2018-10-18T01:59:52.299Z,937.21
2018-10-18T02:00:52.246Z,937.18
2018-10-18T02:01:52.223Z,937.21
2018-10-18T02:02:52.226Z,937.24
2018-10-18T02:03:52.197Z,937.21
2018-10-18T02:04:52.185Z,937.20
2018-10-18T02:05:52.194Z,937.17
2018-10-18T02:06:52.164Z,937.19
2018-10-18T02:07:52.176Z,937.17
2018-10-18T02:08:52.141Z,937.17
2018-10-18T02:09:52.130Z,937.15
2018-10-18T02:10:52.124Z,937.15
2018-10-18T02:11:52.161Z,937.21
2018-10-18T02:12:52.130Z,937.20
2018-10-18T02:13:52.086Z,937.19
2018-10-18T02:14:52.076Z,937.19
2018-10-18T02:15:52.075Z,937.20
2018-10-18T02:16:52.056Z,937.20
2018-10-18T02:17:52.083Z,937.21
2018-10-18T02:18:52.084Z,937.15
2018-10-18T02:19:52.020Z,937.20
2018-10-18T02:20:52.010Z,937.20
2018-10-18T02:21:51.998Z,937.18
2018-10-18T02:22:52.016Z,937.18
2018-10-18T02:23:52.023Z,937.14
2018-10-18T02:24:51.984Z,937.15
2018-10-18T02:25:51.952Z,937.18
2018-10-18T02:26:51.944Z,937.18
2018-10-18T02:27:51.957Z,937.17
2018-10-18T02:28:51.938Z,937.16
2018-10-18T02:29:51.926Z,937.17
2018-10-18T02:30:51.899Z,937.16
2018-10-18T02:31:51.887Z,937.16
2018-10-18T02:32:51.899Z,937.15
2018-10-18T02:33:51.867Z,937.14
2018-10-18T02:34:51.854Z,937.17
2018-10-18T02:35:51.846Z,937.12
2018-10-18T02:36:51.833Z,937.09
2018-10-18T02:37:51.848Z,937.08
2018-10-18T02:38:51.810Z,937.09
2018-10-18T02:39:51.810Z,937.06
2018-10-18T02:40:51.818Z,937.07
2018-10-18T02:41:51.818Z,937.05
2018-10-18T02:42:51.782Z,937.11
2018-10-18T02:43:51.776Z,937.04
2018-10-18T02:44:51.753Z,937.06
2018-10-18T02:45:51.733Z,937.06
2018-10-18T02:46:51.745Z,937.04
2018-10-18T02:47:51.763Z,937.07
2018-10-18T02:48:51.700Z,937.13
2018-10-18T02:49:51.689Z,937.08
2018-10-18T02:50:51.679Z,937.08
2018-10-18T02:51:51.674Z,937.09
2018-10-18T02:52:51.669Z,937.08
2018-10-18T02:53:51.649Z,937.05
2018-10-18T02:54:51.638Z,937.00
2018-10-18T02:55:51.627Z,937.03
2018-10-18T02:56:51.610Z,936.95
2018-10-18T02:57:51.646Z,936.99
2018-10-18T02:58:51.589Z,936.99
2018-10-18T02:59:51.582Z,937.02
2018-10-18T03:00:51.584Z,936.95
2018-10-18T03:01:51.569Z,936.98
2018-10-18T03:02:51.549Z,937.01
2018-10-18T03:03:51.570Z,937.06
2018-10-18T03:04:51.526Z,937.03
2018-10-18T03:05:51.569Z,937.00
2018-10-18T03:06:51.506Z,937.03
2018-10-18T03:07:51.505Z,936.98
2018-10-18T03:08:51.496Z,937.02
2018-10-18T03:09:51.472Z,937.02
2018-10-18T03:10:51.459Z,937.04
2018-10-18T03:11:51.506Z,937.10
2018-10-18T03:12:51.448Z,937.08
2018-10-18T03:13:51.441Z,937.07
2018-10-18T03:14:51.415Z,937.04
2018-10-18T03:15:51.433Z,937.05
2018-10-18T03:16:51.408Z,937.08
2018-10-18T03:17:51.387Z,937.05
2018-10-18T03:18:51.388Z,937.03
2018-10-18T03:19:51.357Z,937.02
2018-10-18T03:20:51.358Z,937.04
2018-10-18T03:21:51.337Z,937.06
2018-10-18T03:22:51.328Z,937.07
2018-10-18T03:23:51.339Z,937.06
2018-10-18T03:24:51.301Z,937.07
2018-10-18T03:25:51.298Z,937.08
2018-10-18T03:26:51.301Z,937.05
2018-10-18T03:27:51.270Z,937.01
2018-10-18T03:28:51.278Z,937.08
2018-10-18T03:29:51.304Z,937.07
2018-10-18T03:30:51.244Z,937.08
2018-10-18T03:31:51.227Z,937.06
2018-10-18T03:32:51.279Z,937.10
2018-10-18T03:33:51.227Z,937.06
2018-10-18T03:34:51.197Z,937.08
2018-10-18T03:35:51.188Z,937.08
2018-10-18T03:36:51.181Z,937.05
2018-10-18T03:37:51.162Z,937.05
2018-10-18T03:38:51.508Z,937.06
2018-10-18T03:39:51.138Z,937.06
2018-10-18T03:40:51.154Z,937.05
2018-10-18T03:41:51.113Z,937.06
2018-10-18T03:42:51.102Z,937.05
2018-10-18T03:43:51.107Z,937.07
2018-10-18T03:44:51.083Z,937.04
2018-10-18T03:45:51.071Z,937.04
2018-10-18T03:46:51.058Z,937.02
2018-10-18T03:47:51.045Z,937.04
2018-10-18T03:48:51.052Z,937.05
2018-10-18T03:49:51.024Z,937.03
2018-10-18T03:50:51.017Z,937.06
2018-10-18T03:51:51.007Z,937.05
2018-10-18T03:52:50.989Z,937.06
2018-10-18T03:53:50.994Z,937.03
2018-10-18T03:54:50.967Z,937.07
2018-10-18T03:55:50.969Z,937.10
2018-10-18T03:56:50.947Z,937.05
2018-10-18T03:57:50.933Z,937.06
2018-10-18T03:58:50.939Z,937.10
2018-10-18T03:59:50.910Z,937.07
2018-10-18T04:00:50.907Z,937.10
2018-10-18T04:01:50.897Z,937.08
2018-10-18T04:02:50.889Z,937.05
2018-10-18T04:03:50.885Z,937.07
2018-10-18T04:04:50.853Z,937.10
2018-10-18T04:05:50.843Z,937.06
2018-10-18T04:06:50.849Z,937.05
2018-10-18T04:07:50.841Z,937.09
2018-10-18T04:08:50.818Z,937.05
2018-10-18T04:09:50.815Z,937.04
2018-10-18T04:10:50.791Z,937.07
2018-10-18T04:11:50.776Z,937.08
2018-10-18T04:12:50.859Z,937.05
2018-10-18T04:13:50.772Z,936.99
2018-10-18T04:14:50.767Z,937.06
2018-10-18T04:15:50.731Z,937.06
2018-10-18T04:16:50.771Z,937.10
2018-10-18T04:17:50.749Z,937.08
2018-10-18T04:18:50.702Z,937.10
2018-10-18T04:19:50.705Z,937.09
2018-10-18T04:20:50.674Z,937.05
2018-10-18T04:21:50.664Z,937.10
2018-10-18T04:22:50.653Z,937.08
2018-10-18T04:23:50.642Z,937.10
2018-10-18T04:24:50.660Z,937.05
2018-10-18T04:25:50.620Z,937.04
2018-10-18T04:26:50.609Z,937.05
2018-10-18T04:27:50.597Z,937.08
2018-10-18T04:28:50.597Z,937.03
2018-10-18T04:29:50.599Z,937.02
2018-10-18T04:30:50.584Z,937.08
2018-10-18T04:31:50.614Z,937.04
2018-10-18T04:32:50.549Z,937.03
2018-10-18T04:33:50.531Z,937.00
2018-10-18T04:34:50.581Z,937.02
2018-10-18T04:35:50.509Z,937.04
2018-10-18T04:36:50.496Z,937.01
2018-10-18T04:37:50.488Z,936.99
2018-10-18T04:38:50.473Z,936.99
2018-10-18T04:39:50.497Z,937.01
2018-10-18T04:40:50.452Z,937.01
2018-10-18T04:41:50.447Z,937.03
2018-10-18T04:42:50.429Z,937.01
2018-10-18T04:43:50.418Z,937.02
2018-10-18T04:44:50.424Z,937.02
2018-10-18T04:45:50.411Z,937.03
2018-10-18T04:46:50.403Z,937.04
2018-10-18T04:47:50.639Z,936.99
2018-10-18T04:48:50.460Z,937.03
2018-10-18T04:49:50.383Z,937.01
2018-10-18T04:50:50.338Z,937.02
2018-10-18T04:51:50.328Z,937.02
2018-10-18T04:52:50.326Z,937.02
2018-10-18T04:53:50.309Z,936.97
2018-10-18T04:54:50.309Z,937.02
2018-10-18T04:55:50.283Z,937.01
2018-10-18T04:56:50.370Z,937.00
2018-10-18T04:57:50.267Z,937.02
2018-10-18T04:58:50.252Z,937.01
2018-10-18T04:59:50.281Z,937.00
2018-10-18T05:00:50.225Z,936.98
2018-10-18T05:01:50.233Z,936.98
2018-10-18T05:02:50.284Z,936.98
2018-10-18T05:03:50.214Z,936.99
2018-10-18T05:04:50.261Z,937.01
2018-10-18T05:05:50.171Z,937.01
2018-10-18T05:06:50.201Z,936.99
2018-10-18T05:07:50.159Z,937.02
2018-10-18T05:08:50.148Z,937.01
2018-10-18T05:09:50.149Z,937.01
2018-10-18T05:10:50.145Z,937.03
2018-10-18T05:11:50.101Z,937.01
2018-10-18T05:12:50.115Z,937.03
2018-10-18T05:13:50.080Z,937.07
2018-10-18T05:14:50.079Z,937.02
2018-10-18T05:15:50.070Z,937.06
2018-10-18T05:16:50.044Z,937.03
2018-10-18T05:17:50.033Z,937.06
2018-10-18T05:18:50.036Z,937.05
2018-10-18T05:19:50.020Z,937.08
2018-10-18T05:20:50.029Z,937.03
2018-10-18T05:21:49.991Z,937.02
2018-10-18T05:22:49.977Z,937.06
2018-10-18T05:23:49.982Z,937.11
2018-10-18T05:24:49.963Z,937.08
2018-10-18T05:25:49.961Z,937.09
2018-10-18T05:26:49.934Z,937.11
2018-10-18T05:27:49.922Z,937.12
2018-10-18T05:28:49.945Z,937.15
2018-10-18T05:29:49.919Z,937.14
2018-10-18T05:30:49.906Z,937.09
2018-10-18T05:31:49.996Z,937.16
2018-10-18T05:32:49.882Z,937.17
2018-10-18T05:33:49.855Z,937.18
2018-10-18T05:34:49.842Z,937.15
2018-10-18T05:35:49.849Z,937.22
2018-10-18T05:36:49.854Z,937.22
2018-10-18T05:37:49.958Z,937.21
2018-10-18T05:38:49.797Z,937.22
2018-10-18T05:39:49.787Z,937.25
2018-10-18T05:40:49.793Z,937.22
2018-10-18T05:41:49.772Z,937.26
2018-10-18T05:42:49.752Z,937.24
2018-10-18T05:43:49.746Z,937.27
2018-10-18T05:44:49.733Z,937.30
2018-10-18T05:45:49.758Z,937.28
2018-10-18T05:46:49.752Z,937.25
2018-10-18T05:47:49.708Z,937.24
2018-10-18T05:48:49.684Z,937.31
2018-10-18T05:49:49.680Z,937.33
2018-10-18T05:50:49.704Z,937.34
2018-10-18T05:51:49.667Z,937.35
2018-10-18T05:52:49.721Z,937.35
2018-10-18T05:53:49.756Z,937.36
2018-10-18T05:54:49.622Z,937.35
2018-10-18T05:55:49.646Z,937.32
2018-10-18T05:56:49.593Z,937.38
2018-10-18T05:57:49.583Z,937.35
2018-10-18T05:58:49.582Z,937.34
2018-10-18T05:59:49.560Z,937.35
2018-10-18T06:00:49.568Z,937.36
2018-10-18T06:01:49.537Z,937.37
2018-10-18T06:02:49.553Z,937.34
2018-10-18T06:03:49.520Z,937.36
2018-10-18T06:04:49.507Z,937.35
2018-10-18T06:05:49.510Z,937.37
2018-10-18T06:06:49.482Z,937.38
2018-10-18T06:07:49.473Z,937.37
2018-10-18T06:08:49.459Z,937.42
2018-10-18T06:09:49.474Z,937.46
2018-10-18T06:10:49.472Z,937.45
2018-10-18T06:11:49.432Z,937.42
2018-10-18T06:12:49.415Z,937.44
2018-10-18T06:13:49.429Z,937.43
2018-10-18T06:14:49.399Z,937.44
2018-10-18T06:15:49.381Z,937.45
2018-10-18T06:16:49.389Z,937.42
2018-10-18T06:17:49.362Z,937.44
2018-10-18T06:18:49.350Z,937.44
2018-10-18T06:19:49.338Z,937.43
2018-10-18T06:20:49.330Z,937.46
2018-10-18T06:21:49.353Z,937.47
2018-10-18T06:22:49.434Z,937.48
2018-10-18T06:23:49.298Z,937.48
2018-10-18T06:24:49.288Z,937.50
2018-10-18T06:25:49.276Z,937.48
2018-10-18T06:26:49.288Z,937.51
2018-10-18T06:27:49.262Z,937.55
2018-10-18T06:28:49.243Z,937.49
2018-10-18T06:29:49.232Z,937.50
2018-10-18T06:30:49.243Z,937.52
2018-10-18T06:31:49.224Z,937.56
2018-10-18T06:32:49.249Z,937.60
2018-10-18T06:33:49.188Z,937.55
2018-10-18T06:34:49.179Z,937.60
2018-10-18T06:35:49.165Z,937.56
2018-10-18T06:36:49.174Z,937.61
2018-10-18T06:37:49.156Z,937.64
2018-10-18T06:38:49.135Z,937.65
2018-10-18T06:39:49.121Z,937.63
2018-10-18T06:40:49.111Z,937.70
2018-10-18T06:41:49.123Z,937.70
2018-10-18T06:42:49.093Z,937.70
2018-10-18T06:43:49.096Z,937.69
2018-10-18T06:44:49.069Z,937.72
2018-10-18T06:45:49.057Z,937.74
2018-10-18T06:46:49.077Z,937.72
2018-10-18T06:47:49.245Z,937.76
2018-10-18T06:48:49.065Z,937.75
2018-10-18T06:49:49.018Z,937.79
2018-10-18T06:50:49.003Z,937.81
2018-10-18T06:51:49.007Z,937.82
2018-10-18T06:52:48.985Z,937.78
2018-10-18T06:53:48.971Z,937.82
2018-10-18T06:54:48.985Z,937.78
2018-10-18T06:55:48.947Z,937.81
2018-10-18T06:56:48.964Z,937.79
2018-10-18T06:57:48.924Z,937.80
2018-10-18T06:58:48.921Z,937.78
2018-10-18T06:59:49.039Z,937.73
2018-10-18T07:00:48.891Z,937.78
2018-10-18T07:01:48.886Z,937.75
2018-10-18T07:02:48.885Z,937.74
2018-10-18T07:03:48.857Z,937.75
2018-10-18T07:04:48.845Z,937.76
2018-10-18T07:05:48.852Z,937.77
2018-10-18T07:06:48.827Z,937.84
2018-10-18T07:07:48.828Z,937.81
2018-10-18T07:08:48.812Z,937.84
2018-10-18T07:09:48.805Z,937.81
2018-10-18T07:10:48.828Z,937.84
2018-10-18T07:11:48.773Z,937.83
2018-10-18T07:12:48.779Z,937.85
2018-10-18T07:13:48.745Z,937.82
2018-10-18T07:14:48.736Z,937.83
2018-10-18T07:15:48.723Z,937.84
2018-10-18T07:16:48.717Z,937.88
2018-10-18T07:17:48.813Z,937.89
2018-10-18T07:18:48.690Z,937.86
2018-10-18T07:19:48.681Z,937.90
2018-10-18T07:20:48.676Z,937.91
2018-10-18T07:21:48.666Z,937.93
2018-10-18T07:22:48.677Z,937.88
2018-10-18T07:23:48.634Z,937.94
2018-10-18T07:24:48.622Z,937.91
2018-10-18T07:25:48.613Z,937.97
2018-10-18T07:26:48.604Z,937.95
2018-10-18T07:27:48.603Z,937.94
2018-10-18T07:28:48.603Z,937.95
2018-10-18T07:29:48.569Z,937.99
2018-10-18T07:30:48.560Z,937.96
2018-10-18T07:31:48.546Z,937.96
2018-10-18T07:32:48.537Z,937.96
2018-10-18T07:33:48.544Z,937.94
2018-10-18T07:34:48.562Z,937.96
2018-10-18T07:35:48.504Z,938.01
2018-10-18T07:36:48.491Z,937.98
2018-10-18T07:37:48.489Z,937.98
2018-10-18T07:38:48.512Z,937.99
2018-10-18T07:39:48.461Z,938.00
2018-10-18T07:40:48.450Z,938.03
2018-10-18T07:41:48.437Z,937.98
2018-10-18T07:42:48.429Z,938.00
2018-10-18T07:43:48.454Z,938.02
2018-10-18T07:44:48.413Z,938.03
2018-10-18T07:45:48.394Z,938.01
2018-10-18T07:46:48.444Z,938.02
2018-10-18T07:47:48.376Z,938.00
2018-10-18T07:48:48.402Z,938.01
2018-10-18T07:49:48.357Z,938.03
2018-10-18T07:50:48.340Z,938.04
2018-10-18T07:51:48.330Z,938.01
2018-10-18T07:52:48.331Z,938.03
2018-10-18T07:53:48.323Z,938.03
2018-10-18T07:54:48.304Z,938.06
2018-10-18T07:55:48.284Z,938.07
2018-10-18T07:56:48.273Z,938.07
2018-10-18T07:57:48.270Z,938.05
2018-10-18T07:58:48.267Z,938.05
2018-10-18T07:59:48.248Z,938.07
2018-10-18T08:00:48.347Z,938.08
2018-10-18T08:01:48.231Z,938.11
2018-10-18T08:02:48.223Z,938.07
2018-10-18T08:03:48.212Z,938.09
2018-10-18T08:04:48.185Z,938.09
2018-10-18T08:05:48.178Z,938.11
2018-10-18T08:06:48.176Z,938.10
2018-10-18T08:07:48.153Z,938.11
2018-10-18T08:08:48.155Z,938.14
2018-10-18T08:09:48.171Z,938.11
2018-10-18T08:10:48.159Z,938.11
2018-10-18T08:11:48.108Z,938.14
2018-10-18T08:12:48.113Z,938.17
2018-10-18T08:13:48.137Z,938.19
2018-10-18T08:14:48.079Z,938.19
2018-10-18T08:15:48.061Z,938.17
2018-10-18T08:16:48.124Z,938.20
2018-10-18T08:17:48.057Z,938.20
2018-10-18T08:18:48.052Z,938.11
2018-10-18T08:19:48.018Z,938.13
2018-10-18T08:20:48.007Z,938.13
2018-10-18T08:21:47.996Z,938.13
2018-10-18T08:22:47.986Z,938.14
2018-10-18T08:23:47.991Z,938.13
2018-10-18T08:24:47.964Z,938.12
2018-10-18T08:25:47.949Z,938.13
2018-10-18T08:26:47.940Z,938.17
2018-10-18T08:27:47.928Z,938.14
2018-10-18T08:28:47.931Z,938.14
2018-10-18T08:29:47.905Z,938.12
2018-10-18T08:30:55.027Z,938.12
2018-10-18T08:31:47.991Z,938.13
2018-10-18T08:32:47.871Z,938.16
2018-10-18T08:33:47.879Z,938.14
2018-10-18T08:34:47.849Z,938.15
2018-10-18T08:35:47.850Z,938.17
2018-10-18T08:36:47.831Z,938.14
2018-10-18T08:37:47.986Z,938.23
2018-10-18T08:38:47.826Z,938.16
2018-10-18T08:39:47.796Z,938.18
2018-10-18T08:40:47.834Z,938.15
2018-10-18T08:41:47.776Z,938.20
2018-10-18T08:42:47.763Z,938.19
2018-10-18T08:43:47.793Z,938.21
2018-10-18T08:44:47.751Z,938.19
2018-10-18T08:45:47.727Z,938.22
2018-10-18T08:46:47.717Z,938.21
2018-10-18T08:47:47.705Z,938.21
2018-10-18T08:48:47.761Z,938.20
2018-10-18T08:49:47.742Z,938.18
2018-10-18T08:50:47.677Z,938.18
2018-10-18T08:51:47.662Z,938.20
2018-10-18T08:52:47.649Z,938.18
2018-10-18T08:53:47.660Z,938.16
2018-10-18T08:54:47.663Z,938.20
2018-10-18T08:55:47.617Z,938.19
2018-10-18T08:56:47.606Z,938.21
2018-10-18T08:57:47.599Z,938.19
2018-10-18T08:58:47.649Z,938.22
2018-10-18T08:59:47.571Z,938.18
2018-10-18T09:00:47.561Z,938.21
2018-10-18T09:01:47.552Z,938.21
2018-10-18T09:02:47.536Z,938.22
2018-10-18T09:03:47.613Z,938.21
2018-10-18T09:04:47.513Z,938.24
2018-10-18T09:05:47.503Z,938.23
2018-10-18T09:06:47.492Z,938.26
2018-10-18T09:07:47.480Z,938.27
2018-10-18T09:08:47.487Z,938.30
2018-10-18T09:09:47.457Z,938.31
2018-10-18T09:10:47.516Z,938.32
2018-10-18T09:11:47.434Z,938.28
2018-10-18T09:12:47.428Z,938.30
2018-10-18T09:13:47.431Z,938.28
2018-10-18T09:14:47.401Z,938.29
2018-10-18T09:15:47.441Z,938.28
2018-10-18T09:16:47.380Z,938.28
2018-10-18T09:17:47.401Z,938.23
2018-10-18T09:18:47.376Z,938.24
2018-10-18T09:19:47.356Z,938.21
2018-10-18T09:20:47.334Z,938.23
2018-10-18T09:21:47.326Z,938.22
2018-10-18T09:22:47.313Z,938.23
2018-10-18T09:23:47.430Z,938.19
2018-10-18T09:24:47.290Z,938.18
2018-10-18T09:25:47.278Z,938.22
2018-10-18T09:26:47.270Z,938.21
2018-10-18T09:27:47.260Z,938.22
2018-10-18T09:28:47.263Z,938.19
2018-10-18T09:29:47.271Z,938.18
2018-10-18T09:30:47.242Z,938.21
2018-10-18T09:31:47.218Z,938.20
2018-10-18T09:32:47.201Z,938.19
2018-10-18T09:33:47.205Z,938.19
2018-10-18T09:34:47.178Z,938.17
2018-10-18T09:35:47.200Z,938.21
2018-10-18T09:36:47.156Z,938.19
2018-10-18T09:37:47.149Z,938.21
2018-10-18T09:38:47.137Z,938.22
2018-10-18T09:39:47.137Z,938.18
2018-10-18T09:40:47.109Z,938.19
2018-10-18T09:41:47.101Z,938.27
2018-10-18T09:42:47.143Z,938.23
2018-10-18T09:43:47.077Z,938.26
2018-10-18T09:44:47.142Z,938.21
2018-10-18T09:45:47.057Z,938.20
2018-10-18T09:46:47.045Z,938.19
2018-10-18T09:47:47.032Z,938.19
2018-10-18T09:48:47.019Z,938.21
2018-10-18T09:49:47.072Z,938.23
2018-10-18T09:50:46.997Z,938.24
2018-10-18T09:51:46.985Z,938.23
2018-10-18T09:52:46.997Z,938.23
2018-10-18T09:53:46.965Z,938.25
2018-10-18T09:54:46.969Z,938.24
2018-10-18T09:55:47.039Z,938.20
2018-10-18T09:56:46.970Z,938.27
2018-10-18T09:57:46.918Z,938.24
2018-10-18T09:58:46.914Z,938.25
2018-10-18T09:59:46.914Z,938.25
2018-10-18T10:00:46.890Z,938.26
2018-10-18T10:01:46.881Z,938.29
2018-10-18T10:02:46.867Z,938.31
2018-10-18T10:03:46.879Z,938.31
2018-10-18T10:04:46.865Z,938.30
2018-10-18T10:05:46.830Z,938.30
2018-10-18T10:06:46.826Z,938.28
2018-10-18T10:07:46.807Z,938.26
2018-10-18T10:08:46.797Z,938.28
2018-10-18T10:09:46.806Z,938.28
2018-10-18T10:10:46.783Z,938.29
2018-10-18T10:11:46.901Z,938.25
2018-10-18T10:12:46.752Z,938.23
2018-10-18T10:13:46.875Z,938.25
2018-10-18T10:14:46.745Z,938.24
2018-10-18T10:15:46.719Z,938.19
2018-10-18T10:16:46.766Z,938.22
2018-10-18T10:17:46.818Z,938.19
2018-10-18T10:18:46.686Z,938.23
2018-10-18T10:19:46.690Z,938.21
2018-10-18T10:20:46.662Z,938.19
2018-10-18T10:21:46.770Z,938.19
2018-10-18T10:22:46.668Z,938.18
2018-10-18T10:23:46.636Z,938.18
2018-10-18T10:24:46.688Z,938.18
2018-10-18T10:25:46.608Z,938.16
2018-10-18T10:26:46.598Z,938.12
2018-10-18T10:27:46.640Z,938.13
2018-10-18T10:28:46.575Z,938.12
2018-10-18T10:29:46.589Z,938.11
2018-10-18T10:30:46.554Z,938.15
2018-10-18T10:31:46.546Z,938.11
2018-10-18T10:32:46.586Z,938.11
2018-10-18T10:33:46.585Z,938.06
2018-10-18T10:34:46.532Z,938.05
2018-10-18T10:35:46.587Z,938.10
2018-10-18T10:36:46.490Z,938.08
2018-10-18T10:37:46.476Z,938.09
2018-10-18T10:38:46.467Z,938.10
2018-10-18T10:39:46.543Z,938.06
2018-10-18T10:40:46.445Z,938.11
2018-10-18T10:41:46.432Z,938.09
2018-10-18T10:42:46.445Z,938.04
2018-10-18T10:43:46.412Z,938.07
2018-10-18T10:44:46.463Z,938.04
2018-10-18T10:45:46.514Z,938.00
2018-10-18T10:46:46.452Z,937.99
2018-10-18T10:47:46.371Z,937.98
2018-10-18T10:48:46.359Z,937.94
2018-10-18T10:49:46.373Z,937.96
2018-10-18T10:50:46.335Z,937.96
2018-10-18T10:51:46.339Z,937.92
2018-10-18T10:52:46.314Z,937.94
2018-10-18T10:53:46.303Z,937.95
2018-10-18T10:54:46.308Z,937.97
2018-10-18T10:55:46.363Z,937.94
2018-10-18T10:56:46.269Z,937.95
2018-10-18T10:57:46.257Z,937.95
2018-10-18T10:58:46.309Z,937.94
2018-10-18T10:59:46.257Z,937.89
2018-10-18T11:00:46.225Z,937.92
2018-10-18T11:01:46.217Z,937.88
2018-10-18T11:02:46.209Z,937.88
2018-10-18T11:03:46.194Z,937.91
2018-10-18T11:04:46.203Z,937.88
2018-10-18T11:05:46.312Z,937.89
2018-10-18T11:06:46.163Z,937.85
2018-10-18T11:07:46.148Z,937.84
2018-10-18T11:08:46.141Z,937.83
2018-10-18T11:09:46.262Z,937.77
2018-10-18T11:10:46.117Z,937.74
2018-10-18T11:11:46.146Z,937.74
2018-10-18T11:12:46.170Z,937.73
2018-10-18T11:13:46.086Z,937.76
2018-10-18T11:14:46.087Z,937.71
2018-10-18T11:15:46.064Z,937.73
2018-10-18T11:16:46.055Z,937.71
2018-10-18T11:17:46.039Z,937.73
2018-10-18T11:18:46.031Z,937.73
2018-10-18T11:19:46.056Z,937.67
2018-10-18T11:20:46.667Z,937.70
2018-10-18T11:21:46.387Z,937.68
2018-10-18T11:22:46.256Z,937.66
2018-10-18T11:23:45.978Z,937.70
2018-10-18T11:24:46.123Z,937.69
2018-10-18T11:25:45.972Z,937.66
2018-10-18T11:26:45.984Z,937.68
2018-10-18T11:27:45.933Z,937.70
2018-10-18T11:28:45.924Z,937.67
2018-10-18T11:29:45.911Z,937.64
2018-10-18T11:30:45.921Z,937.68
2018-10-18T11:31:45.894Z,937.70
2018-10-18T11:32:45.881Z,937.68
2018-10-18T11:33:45.876Z,937.73
2018-10-18T11:34:45.862Z,937.70
2018-10-18T11:35:45.885Z,937.64
2018-10-18T11:36:45.846Z,937.68
2018-10-18T11:37:45.827Z,937.68
2018-10-18T11:38:45.818Z,937.70
2018-10-18T11:39:45.810Z,937.68
2018-10-18T11:40:45.833Z,937.67
2018-10-18T11:41:45.791Z,937.63
2018-10-18T11:42:45.827Z,937.65
2018-10-18T11:43:45.786Z,937.66
2018-10-18T11:44:45.756Z,937.67
2018-10-18T11:45:45.758Z,937.67
2018-10-18T11:46:45.733Z,937.64
2018-10-18T11:47:45.750Z,937.62
2018-10-18T11:48:45.723Z,937.60
2018-10-18T11:49:45.704Z,937.58
2018-10-18T11:50:45.724Z,937.59
2018-10-18T11:51:45.939Z,937.57
2018-10-18T11:52:45.679Z,937.57
2018-10-18T11:53:45.660Z,937.61
2018-10-18T11:54:45.647Z,937.59
2018-10-18T11:55:45.688Z,937.56
2018-10-18T11:56:45.625Z,937.58
2018-10-18T11:57:45.655Z,937.54
2018-10-18T11:58:45.608Z,937.55
2018-10-18T11:59:45.605Z,937.55
2018-10-18T12:00:45.611Z,937.47
2018-10-18T12:01:45.584Z,937.50
2018-10-18T12:02:45.618Z,937.48
2018-10-18T12:03:45.572Z,937.49
2018-10-18T12:04:45.537Z,937.48
2018-10-18T12:05:45.575Z,937.50
2018-10-18T12:06:45.520Z,937.50
2018-10-18T12:07:45.513Z,937.46
2018-10-18T12:08:45.493Z,937.48
2018-10-18T12:09:45.496Z,937.50
2018-10-18T12:10:45.469Z,937.52
2018-10-18T12:11:45.475Z,937.51
2018-10-18T12:12:45.446Z,937.49
2018-10-18T12:13:45.437Z,937.50
2018-10-18T12:14:45.435Z,937.52
2018-10-18T12:15:45.429Z,937.56
2018-10-18T12:16:45.445Z,937.51
2018-10-18T12:17:45.396Z,937.52
2018-10-18T12:18:45.385Z,937.43
2018-10-18T12:19:45.377Z,937.47
2018-10-18T12:20:45.364Z,937.44
2018-10-18T12:21:45.367Z,937.46
2018-10-18T12:22:45.338Z,937.43
2018-10-18T12:23:45.340Z,937.52
2018-10-18T12:24:45.319Z,937.51
2018-10-18T12:25:45.307Z,937.42
2018-10-18T12:26:45.360Z,937.42
2018-10-18T12:27:45.288Z,937.44
2018-10-18T12:28:45.271Z,937.43